Time;durP1;ratioP1;P1;durP2;ratioP2;P2;SDS_P1;SDS_P2;PMS_P1;PMS_P2;Temp;Humidity;BMP_temperature;BMP_pressure;BME280_temperature;BME280_humidity;BME280_pressure;Samples;Min_cycle;Max_cycle;Signal;HPM_P1;HPM_P2
2022/05/16 03:03:01;;;;;;;0.60;0.53;;;19.90;59.30;;;;;;4973118;28;20470;-68
2022/05/16 03:05:27;;;;;;;0.70;0.60;;;19.80;58.90;;;;;;4974338;28;20500;-70
2022/05/16 03:07:54;;;;;;;0.60;0.57;;;19.70;59.00;;;;;;4974028;28;20953;-68
2022/05/16 03:10:21;;;;;;;0.70;0.60;;;19.70;59.10;;;;;;4974231;28;20540;-69
2022/05/16 03:12:49;;;;;;;0.70;0.70;;;19.60;59.80;;;;;;4954666;29;20804;-70
2022/05/16 03:15:16;;;;;;;0.70;0.60;;;19.60;59.50;;;;;;4954916;29;20459;-69
2022/05/16 03:17:43;;;;;;;0.70;0.60;;;19.70;59.40;;;;;;5116302;23;20563;-73
2022/05/16 03:20:15;;;;;;;0.90;0.90;;;19.90;59.70;;;;;;5008355;28;20448;-72
2022/05/16 03:22:42;;;;;;;0.60;0.50;;;20.00;60.00;;;;;;5008061;28;20430;-73
2022/05/16 03:25:09;;;;;;;0.70;0.60;;;20.10;60.00;;;;;;5007314;28;20449;-72
2022/05/16 03:27:36;;;;;;;0.70;0.60;;;20.10;59.30;;;;;;5007431;28;20477;-72
2022/05/16 03:30:04;;;;;;;0.90;0.80;;;20.10;60.10;;;;;;5007740;28;20445;-71
2022/05/16 03:32:30;;;;;;;0.63;0.60;;;20.10;60.00;;;;;;5007114;28;20480;-72
2022/05/16 03:34:58;;;;;;;0.70;0.60;;;20.10;60.30;;;;;;5007667;28;20445;-73
2022/05/16 03:37:26;;;;;;;0.70;0.60;;;20.20;59.80;;;;;;5007273;28;20469;-72
2022/05/16 03:42:37;;;;;;;0.80;0.70;;;20.20;59.20;;;;;;5007380;28;20424;-72
2022/05/16 03:45:05;;;;;;;0.60;0.53;;;20.20;59.30;;;;;;5009632;28;20449;-72
2022/05/16 03:47:31;;;;;;;0.60;0.60;;;20.30;58.90;;;;;;5011319;28;20465;-72
2022/05/16 03:49:58;;;;;;;0.60;0.60;;;20.30;58.90;;;;;;5011629;28;20453;-73
2022/05/16 03:52:26;;;;;;;0.60;0.60;;;20.20;58.50;;;;;;5010749;28;20508;-73
2022/05/16 03:54:53;;;;;;;0.60;0.60;;;20.10;58.80;;;;;;5011212;28;20463;-72
2022/05/16 03:57:21;;;;;;;0.70;0.60;;;20.00;59.30;;;;;;5010759;28;20496;-72
2022/05/16 03:59:48;;;;;;;0.73;0.60;;;20.00;59.10;;;;;;5011095;28;20452;-73
2022/05/16 04:02:15;;;;;;;0.70;0.60;;;20.20;59.20;;;;;;5012065;28;20444;-72
2022/05/16 04:04:43;;;;;;;1.00;0.60;;;20.30;59.30;;;;;;5010756;28;20449;-72
2022/05/16 04:07:10;;;;;;;0.80;0.60;;;20.30;59.70;;;;;;5011282;28;20480;-72
2022/05/16 04:09:39;;;;;;;0.60;0.60;;;20.30;61.40;;;;;;5011119;28;20449;-73
2022/05/16 04:12:07;;;;;;;0.77;0.60;;;20.40;61.40;;;;;;5010938;28;20488;-73
2022/05/16 04:14:34;;;;;;;0.80;0.70;;;20.40;61.80;;;;;;5010791;28;20453;-73
2022/05/16 04:17:01;;;;;;;0.63;0.57;;;20.50;61.70;;;;;;5010087;28;20477;-72
2022/05/16 04:19:29;;;;;;;0.70;0.60;;;20.50;62.10;;;;;;5010200;28;20457;-72
2022/05/16 04:21:55;;;;;;;0.67;0.60;;;20.60;62.70;;;;;;5010224;28;20452;-72
2022/05/16 04:24:22;;;;;;;0.60;0.50;;;20.60;62.80;;;;;;5011002;28;20555;-72
2022/05/16 04:26:50;;;;;;;0.70;0.60;;;20.50;62.50;;;;;;5010567;28;20477;-72
2022/05/16 04:29:17;;;;;;;0.70;0.53;;;20.50;62.30;;;;;;5010963;28;20473;-72
2022/05/16 04:31:44;;;;;;;0.70;0.60;;;20.50;63.90;;;;;;5010236;28;20485;-72
2022/05/16 04:34:11;;;;;;;0.70;0.60;;;20.50;64.60;;;;;;5010719;28;20456;-72
2022/05/16 04:36:39;;;;;;;0.70;0.60;;;20.50;65.50;;;;;;5010233;28;20469;-72
2022/05/16 04:39:06;;;;;;;0.70;0.60;;;20.50;65.60;;;;;;5010435;28;20552;-72
2022/05/16 04:44:18;;;;;;;0.70;0.60;;;20.40;66.40;;;;;;5010819;28;20424;-72
2022/05/16 04:46:45;;;;;;;0.70;0.60;;;20.40;66.60;;;;;;5011725;28;20469;-72
2022/05/16 04:49:12;;;;;;;0.80;0.70;;;20.40;67.30;;;;;;5010593;28;20445;-72
2022/05/16 04:51:39;;;;;;;0.70;0.70;;;20.40;67.20;;;;;;5010919;28;20477;-72
2022/05/16 04:54:06;;;;;;;0.70;0.70;;;20.40;67.60;;;;;;5010511;28;20450;-73
2022/05/16 04:56:33;;;;;;;0.63;0.53;;;20.40;66.90;;;;;;5010233;28;20480;-72
2022/05/16 04:59:00;;;;;;;0.60;0.60;;;20.50;66.40;;;;;;5010614;28;20449;-72
2022/05/16 05:01:29;;;;;;;0.70;0.70;;;20.50;66.60;;;;;;5009956;28;20472;-73
2022/05/16 05:03:55;;;;;;;0.70;0.67;;;20.50;66.30;;;;;;5010412;28;20507;-73
2022/05/16 05:06:22;;;;;;;0.80;0.60;;;20.60;66.80;;;;;;5009297;28;20519;-72
2022/05/16 05:08:49;;;;;;;0.70;0.63;;;20.60;67.00;;;;;;5010096;28;20448;-72
2022/05/16 05:16:45;;;;;;;1.00;0.60;;;20.70;66.60;;;;;;5010370;28;20495;-72
2022/05/16 05:19:12;;;;;;;0.70;0.60;;;20.70;67.20;;;;;;5009389;28;20445;-72
2022/05/16 05:21:38;;;;;;;0.70;0.60;;;20.70;68.30;;;;;;5009213;28;20468;-73
2022/05/16 05:24:07;;;;;;;0.70;0.70;;;20.70;68.60;;;;;;5009528;28;20444;-73
2022/05/16 05:26:33;;;;;;;0.60;0.60;;;20.70;69.10;;;;;;5009955;28;20470;-72
2022/05/16 05:29:00;;;;;;;0.67;0.60;;;20.60;69.30;;;;;;5009814;28;20453;-72
2022/05/16 05:31:27;;;;;;;0.70;0.60;;;20.50;69.50;;;;;;5008636;28;20582;-72
2022/05/16 05:33:56;;;;;;;0.70;0.60;;;20.40;68.50;;;;;;5008710;28;20457;-72
2022/05/16 05:36:23;;;;;;;0.70;0.70;;;20.10;67.10;;;;;;5008730;28;20461;-72
2022/05/16 05:38:51;;;;;;;0.67;0.60;;;20.10;67.40;;;;;;5009246;28;20453;-73
2022/05/16 05:41:20;;;;;;;1.13;0.70;;;20.00;67.50;;;;;;5009598;28;20453;-73
2022/05/16 05:43:46;;;;;;;1.23;0.70;;;20.10;67.10;;;;;;5008780;28;20445;-72
2022/05/16 05:46:13;;;;;;;0.77;0.60;;;20.00;67.20;;;;;;5009256;28;20462;-72
2022/05/16 05:48:40;;;;;;;0.70;0.70;;;19.90;68.50;;;;;;5008159;28;20448;-72
2022/05/16 05:51:08;;;;;;;0.70;0.70;;;19.90;68.80;;;;;;5007100;28;20531;-73
2022/05/16 05:53:37;;;;;;;0.67;0.60;;;20.10;68.00;;;;;;5007890;28;20456;-72
2022/05/16 05:56:04;;;;;;;0.60;0.50;;;20.20;66.90;;;;;;5006514;28;20511;-72
2022/05/16 05:58:32;;;;;;;0.80;0.80;;;20.20;66.60;;;;;;5005040;28;20459;-73
2022/05/16 06:00:59;;;;;;;0.60;0.60;;;20.20;66.70;;;;;;5007191;28;20525;-72
2022/05/16 06:03:26;;;;;;;0.70;0.63;;;20.20;67.10;;;;;;5007721;28;20456;-72
2022/05/16 06:05:53;;;;;;;0.70;0.67;;;20.10;67.10;;;;;;5006517;28;20457;-72
2022/05/16 06:08:21;;;;;;;0.70;0.70;;;20.10;67.20;;;;;;5007732;28;20480;-72
2022/05/16 06:10:49;;;;;;;0.60;0.57;;;20.10;67.60;;;;;;5008623;28;20449;-73
2022/05/16 06:13:17;;;;;;;0.60;0.50;;;20.10;67.30;;;;;;5006450;28;20485;-74
2022/05/16 06:15:43;;;;;;;0.70;0.67;;;20.20;67.40;;;;;;5003938;28;20452;-73
2022/05/16 06:18:10;;;;;;;0.70;0.60;;;20.20;67.60;;;;;;5004733;28;20491;-72
2022/05/16 06:20:38;;;;;;;0.70;0.60;;;20.20;68.10;;;;;;5007201;28;20491;-73
2022/05/16 06:23:05;;;;;;;0.87;0.70;;;20.20;67.70;;;;;;5007112;28;20441;-73
2022/05/16 06:25:33;;;;;;;0.77;0.60;;;20.50;67.40;;;;;;5007147;28;20449;-73
2022/05/16 06:28:02;;;;;;;0.60;0.60;;;20.60;66.60;;;;;;5007172;28;20469;-72
2022/05/16 06:30:30;;;;;;;0.80;0.70;;;20.70;67.30;;;;;;5007290;28;20476;-74
2022/05/16 06:32:56;;;;;;;0.70;0.60;;;20.80;66.50;;;;;;5006676;28;20480;-73
2022/05/16 06:35:23;;;;;;;1.43;0.70;;;20.90;66.30;;;;;;5006594;28;20445;-73
2022/05/16 06:37:50;;;;;;;0.70;0.60;;;21.10;66.60;;;;;;5006837;28;20476;-73
2022/05/16 06:40:19;;;;;;;0.70;0.63;;;21.30;66.20;;;;;;5007081;28;20476;-73
2022/05/16 06:42:47;;;;;;;0.70;0.67;;;21.20;65.90;;;;;;5007823;28;20944;-73
2022/05/16 06:45:15;;;;;;;0.83;0.77;;;21.40;67.00;;;;;;5006699;28;20459;-73
2022/05/16 06:47:42;;;;;;;0.77;0.77;;;21.50;65.10;;;;;;5007205;28;20497;-73
2022/05/16 06:50:09;;;;;;;0.70;0.63;;;21.50;66.70;;;;;;5006871;28;21121;-73
2022/05/16 06:52:36;;;;;;;0.70;0.70;;;21.60;65.30;;;;;;5006629;28;20489;-73
2022/05/16 06:55:03;;;;;;;0.70;0.60;;;21.80;66.50;;;;;;5007452;28;20500;-73
2022/05/16 06:57:30;;;;;;;0.70;0.70;;;22.00;64.40;;;;;;5007148;28;20469;-73
2022/05/16 06:59:58;;;;;;;0.70;0.60;;;22.20;64.20;;;;;;5006981;28;20453;-73
2022/05/16 07:02:25;;;;;;;0.70;0.60;;;22.40;64.70;;;;;;5006507;28;20441;-73
2022/05/16 07:04:52;;;;;;;1.00;0.60;;;22.70;63.70;;;;;;5005842;28;20453;-73
2022/05/16 07:07:19;;;;;;;0.70;0.70;;;23.10;63.50;;;;;;5006629;28;20503;-73
2022/05/16 07:09:46;;;;;;;0.70;0.70;;;23.40;62.40;;;;;;5006231;28;20940;-73
2022/05/16 07:12:13;;;;;;;0.70;0.70;;;23.50;62.00;;;;;;5006579;28;20551;-73
2022/05/16 07:14:40;;;;;;;0.67;0.60;;;23.40;62.30;;;;;;5006949;28;20445;-73
2022/05/16 07:17:08;;;;;;;2.10;0.80;;;23.70;61.60;;;;;;5007065;28;20484;-73
2022/05/16 07:19:36;;;;;;;0.80;0.60;;;23.80;61.20;;;;;;5008295;28;20449;-73
2022/05/16 07:22:04;;;;;;;0.67;0.60;;;23.90;62.20;;;;;;5009392;28;20457;-73
2022/05/16 07:24:31;;;;;;;0.70;0.60;;;23.80;62.00;;;;;;5009080;28;20460;-73
2022/05/16 07:29:42;;;;;;;0.70;0.60;;;23.70;63.50;;;;;;5010276;28;20466;-74
2022/05/16 07:32:12;;;;;;;0.70;0.63;;;23.90;61.20;;;;;;5009809;28;20675;-73
2022/05/16 07:34:39;;;;;;;0.70;0.70;;;24.00;62.40;;;;;;5009716;28;20441;-72
2022/05/16 07:37:07;;;;;;;0.70;0.70;;;24.00;60.90;;;;;;5009360;28;20468;-73
2022/05/16 07:39:35;;;;;;;0.70;0.70;;;23.80;61.80;;;;;;5008544;28;21031;-74
2022/05/16 07:42:02;;;;;;;0.80;0.70;;;23.80;62.70;;;;;;5008527;28;20449;-73
2022/05/16 07:44:29;;;;;;;0.70;0.70;;;23.60;61.00;;;;;;5008195;28;20967;-73
2022/05/16 07:46:56;;;;;;;0.80;0.70;;;23.40;63.00;;;;;;5009110;28;20476;-73
2022/05/16 07:49:24;;;;;;;1.00;0.70;;;23.50;62.20;;;;;;5008554;28;20519;-73
2022/05/16 07:51:51;;;;;;;0.70;0.70;;;23.70;61.90;;;;;;5008596;28;20508;-73
2022/05/16 07:54:18;;;;;;;0.70;0.70;;;23.80;61.30;;;;;;5009113;28;20449;-74
2022/05/16 07:56:44;;;;;;;1.00;0.70;;;23.80;60.20;;;;;;5008246;28;20476;-73
2022/05/16 07:59:11;;;;;;;0.70;0.60;;;23.70;60.80;;;;;;5008639;28;20453;-73
2022/05/16 08:01:38;;;;;;;0.70;0.70;;;23.70;63.10;;;;;;5009193;28;20941;-73
2022/05/16 08:04:06;;;;;;;0.80;0.70;;;23.80;60.90;;;;;;5008776;28;20457;-73
2022/05/16 08:06:35;;;;;;;0.70;0.60;;;23.80;60.60;;;;;;5008355;28;21008;-74
2022/05/16 08:11:45;;;;;;;0.70;0.60;;;23.70;61.30;;;;;;4988494;28;20456;-73
2022/05/16 08:14:12;;;;;;;0.70;0.70;;;23.50;62.90;;;;;;5007177;28;20516;-73
2022/05/16 08:16:39;;;;;;;0.80;0.80;;;23.20;62.00;;;;;;5008462;28;20500;-73
2022/05/16 08:19:07;;;;;;;0.70;0.70;;;23.00;63.20;;;;;;5009477;28;20967;-73
2022/05/16 08:21:36;;;;;;;0.90;0.80;;;22.90;63.70;;;;;;5007634;28;20468;-73
2022/05/16 08:24:07;;;;;;;0.70;0.70;;;23.00;64.40;;;;;;5007974;28;20492;-73
2022/05/16 08:26:34;;;;;;;0.73;0.70;;;22.80;65.10;;;;;;5005711;28;20473;-72
2022/05/16 08:29:01;;;;;;;0.70;0.67;;;22.90;64.20;;;;;;5007638;28;20460;-73
2022/05/16 08:31:28;;;;;;;0.80;0.77;;;23.00;65.00;;;;;;4998761;28;20456;-71
2022/05/16 08:33:56;;;;;;;0.70;0.70;;;23.30;63.90;;;;;;4996716;28;20481;-71
2022/05/16 08:41:55;;;;;;;0.90;0.90;;;23.70;64.60;;;;;;4996683;28;20420;-72
2022/05/16 08:44:27;;;;;;;0.90;0.90;;;24.10;65.00;;;;;;4996529;28;20488;-72
2022/05/16 08:47:08;;;;;;;0.80;0.70;;;24.60;63.60;;;;;;4996402;28;20473;-72
2022/05/16 08:49:39;;;;;;;0.73;0.73;;;25.00;60.80;;;;;;4996516;28;20899;-72
2022/05/16 08:52:13;;;;;;;0.70;0.70;;;25.20;62.10;;;;;;4996388;28;20516;-71
2022/05/16 08:54:46;;;;;;;0.80;0.70;;;25.50;60.50;;;;;;4996364;28;20441;-72
2022/05/16 08:57:18;;;;;;;0.80;0.70;;;25.70;59.90;;;;;;4996185;28;20477;-71
2022/05/16 08:59:54;;;;;;;0.70;0.63;;;25.70;58.10;;;;;;4996257;28;20445;-72
2022/05/16 09:02:24;;;;;;;0.70;0.70;;;25.40;58.90;;;;;;4995960;28;20429;-72
2022/05/16 09:04:57;;;;;;;0.70;0.70;;;25.10;59.00;;;;;;4996126;28;20460;-71
2022/05/16 09:07:29;;;;;;;0.80;0.70;;;25.00;60.00;;;;;;4995760;28;21112;-71
2022/05/16 09:10:03;;;;;;;0.67;0.63;;;25.00;58.80;;;;;;4996169;28;20437;-72
2022/05/16 09:12:36;;;;;;;0.80;0.70;;;24.90;59.50;;;;;;4995716;28;21051;-72
2022/05/16 09:15:14;;;;;;;0.83;0.80;;;25.10;59.50;;;;;;4995971;28;20437;-72
2022/05/16 09:18:02;;;;;;;0.70;0.70;;;25.60;60.00;;;;;;5100860;23;20504;-73
2022/05/16 09:20:39;;;;;;;0.70;0.60;;;25.80;55.40;;;;;;4995480;28;20913;-74
2022/05/16 09:23:15;;;;;;;0.73;0.70;;;26.10;56.90;;;;;;4995762;28;20488;-73
2022/05/16 09:25:54;;;;;;;0.90;0.80;;;26.50;55.40;;;;;;4995660;28;20437;-74
2022/05/16 09:28:37;;;;;;;0.80;0.80;;;27.00;54.90;;;;;;4995554;28;20468;-73
2022/05/16 09:31:12;;;;;;;1.10;0.80;;;27.30;52.80;;;;;;4995611;28;20440;-74
2022/05/16 09:33:44;;;;;;;0.90;0.90;;;27.50;52.10;;;;;;4995495;28;20473;-74
2022/05/16 09:36:12;;;;;;;0.60;0.60;;;27.50;52.70;;;;;;4995331;28;20520;-74
2022/05/16 09:38:44;;;;;;;0.73;0.73;;;27.70;52.00;;;;;;4995356;28;20552;-74
2022/05/16 09:41:20;;;;;;;1.00;0.77;;;27.70;51.50;;;;;;4994734;28;20849;-73
2022/05/16 09:43:58;;;;;;;0.80;0.70;;;27.40;52.30;;;;;;4994850;28;20901;-73
2022/05/16 09:46:33;;;;;;;3.33;0.90;;;27.20;52.90;;;;;;4994876;28;20813;-74
2022/05/16 09:49:06;;;;;;;1.20;0.70;;;26.90;53.10;;;;;;4995012;28;20943;-74
2022/05/16 09:51:44;;;;;;;0.80;0.60;;;26.60;53.50;;;;;;4997836;28;20434;-73
2022/05/16 09:54:14;;;;;;;0.80;0.80;;;26.20;54.70;;;;;;5018326;28;20469;-73
2022/05/16 09:56:55;;;;;;;1.10;0.80;;;26.00;54.40;;;;;;5009849;28;20457;-74
2022/05/16 09:59:35;;;;;;;0.93;0.70;;;25.90;55.60;;;;;;5003431;28;20520;-73
2022/05/16 10:02:10;;;;;;;0.70;0.60;;;26.10;54.70;;;;;;5002257;28;20901;-74
2022/05/16 10:04:40;;;;;;;1.47;0.80;;;26.50;54.50;;;;;;5002812;28;20777;-74
2022/05/16 10:07:07;;;;;;;0.80;0.70;;;26.80;54.30;;;;;;5000947;28;20480;-73
2022/05/16 10:09:37;;;;;;;0.80;0.70;;;27.10;52.90;;;;;;4997853;28;20453;-74
2022/05/16 10:12:08;;;;;;;0.77;0.67;;;27.40;52.90;;;;;;4998726;28;20504;-74
2022/05/16 10:14:37;;;;;;;1.27;0.70;;;27.60;52.50;;;;;;4995457;28;20521;-74
2022/05/16 10:17:07;;;;;;;0.80;0.60;;;27.80;51.70;;;;;;4994390;28;20493;-74
2022/05/16 10:19:35;;;;;;;1.07;0.80;;;27.70;52.90;;;;;;4994605;28;20437;-74
2022/05/16 10:22:05;;;;;;;0.73;0.70;;;27.70;52.20;;;;;;4994574;28;20727;-74
2022/05/16 10:24:35;;;;;;;0.70;0.70;;;27.90;51.40;;;;;;4995207;28;20647;-73
2022/05/16 10:27:09;;;;;;;0.70;0.60;;;27.60;52.60;;;;;;4994212;28;20875;-73
2022/05/16 10:29:40;;;;;;;0.90;0.90;;;27.60;52.50;;;;;;4994791;28;20437;-73
2022/05/16 10:35:02;;;;;;;0.80;0.70;;;27.10;53.40;;;;;;4994332;28;20405;-74
2022/05/16 10:37:30;;;;;;;0.77;0.70;;;27.00;54.20;;;;;;4994032;28;20973;-73
2022/05/16 10:40:10;;;;;;;0.80;0.80;;;26.90;53.60;;;;;;4994378;28;20449;-73
2022/05/16 10:42:46;;;;;;;0.80;0.70;;;26.70;53.70;;;;;;4994527;28;20781;-74
2022/05/16 10:45:17;;;;;;;0.70;0.70;;;26.70;54.10;;;;;;4994198;28;20484;-74
2022/05/16 10:47:51;;;;;;;1.00;0.80;;;26.60;54.90;;;;;;4994116;28;20528;-74
2022/05/16 10:50:22;;;;;;;1.10;0.70;;;26.40;54.40;;;;;;4994195;28;20853;-74
2022/05/16 10:52:54;;;;;;;0.80;0.50;;;26.20;54.00;;;;;;4993818;28;20469;-75
2022/05/16 10:55:22;;;;;;;0.80;0.60;;;26.10;54.90;;;;;;4994021;28;20897;-74
2022/05/16 10:58:20;;;;;;;0.70;0.60;;;25.90;55.00;;;;;;4994369;28;20473;-75
2022/05/16 11:00:53;;;;;;;0.70;0.70;;;25.80;55.20;;;;;;4994722;28;20430;-74
2022/05/16 11:03:58;;;;;;;0.70;0.60;;;25.90;55.40;;;;;;4994262;28;20441;-74
2022/05/16 11:06:45;;;;;;;0.70;0.60;;;25.80;55.80;;;;;;4994402;28;20440;-74
2022/05/16 11:09:18;;;;;;;0.70;0.70;;;25.60;55.40;;;;;;4994844;28;20432;-73
2022/05/16 11:11:55;;;;;;;0.63;0.60;;;25.40;56.80;;;;;;4994602;28;20433;-73
2022/05/16 11:14:30;;;;;;;1.30;0.70;;;25.20;57.10;;;;;;4994602;28;20465;-73
2022/05/16 11:17:01;;;;;;;0.70;0.60;;;25.00;57.70;;;;;;4994511;28;20483;-74
2022/05/16 11:19:41;;;;;;;1.00;0.80;;;24.90;58.50;;;;;;4994307;28;20433;-73
2022/05/16 11:22:14;;;;;;;0.87;0.77;;;24.80;58.70;;;;;;4994342;28;20500;-73
2022/05/16 11:24:47;;;;;;;0.70;0.70;;;24.60;58.30;;;;;;4994096;28;20430;-74
2022/05/16 11:27:23;;;;;;;0.70;0.60;;;24.20;58.80;;;;;;4994135;28;20972;-74
2022/05/16 11:30:03;;;;;;;0.70;0.60;;;24.20;59.50;;;;;;4993776;28;20813;-74
2022/05/16 11:32:43;;;;;;;0.77;0.70;;;24.00;58.80;;;;;;4993864;28;20448;-74
2022/05/16 11:35:16;;;;;;;1.20;0.57;;;23.80;57.20;;;;;;4994075;28;20433;-74
2022/05/16 11:38:14;;;;;;;0.80;0.60;;;23.40;57.60;;;;;;4993636;28;20476;-73
2022/05/16 11:40:47;;;;;;;0.60;0.60;;;23.10;59.00;;;;;;4985336;28;20515;-73
2022/05/16 11:43:20;;;;;;;0.83;0.70;;;23.10;58.60;;;;;;4993844;28;20434;-74
2022/05/16 11:46:14;;;;;;;0.80;0.70;;;23.10;60.00;;;;;;4993646;28;20491;-74
2022/05/16 11:48:51;;;;;;;0.90;0.60;;;22.90;59.30;;;;;;4994254;28;20452;-74
2022/05/16 11:51:26;;;;;;;0.70;0.70;;;22.60;59.40;;;;;;4993597;28;20918;-73
2022/05/16 11:53:58;;;;;;;0.70;0.70;;;22.40;59.80;;;;;;4993512;28;20473;-73
2022/05/16 12:02:15;;;;;;;0.70;0.70;;;22.00;66.70;;;;;;4993621;28;20405;-73
2022/05/16 12:04:45;;;;;;;0.87;0.60;;;21.80;68.10;;;;;;4993980;28;20524;-73
2022/05/16 12:07:18;;;;;;;0.70;0.70;;;21.80;69.70;;;;;;4996802;28;20885;-71
2022/05/16 12:09:53;;;;;;;0.83;0.60;;;21.90;69.60;;;;;;4996808;28;21020;-73
2022/05/16 12:12:31;;;;;;;0.80;0.70;;;22.00;69.80;;;;;;4997201;28;20483;-73
2022/05/16 12:15:14;;;;;;;0.63;0.63;;;21.90;69.60;;;;;;4997279;28;20469;-72
2022/05/16 12:17:50;;;;;;;3.23;0.80;;;21.80;71.40;;;;;;4996845;28;20580;-72
2022/05/16 12:20:17;;;;;;;1.00;0.80;;;21.70;71.00;;;;;;4997148;28;20432;-73
2022/05/16 12:22:46;;;;;;;0.80;0.67;;;21.60;71.30;;;;;;4997108;28;20507;-72
2022/05/16 12:25:27;;;;;;;0.73;0.60;;;21.60;71.30;;;;;;4997143;28;20456;-72
2022/05/16 12:28:19;;;;;;;0.70;0.70;;;21.40;72.80;;;;;;4997087;28;20555;-73
2022/05/16 12:30:52;;;;;;;0.70;0.70;;;21.20;73.70;;;;;;4996592;28;20952;-70
2022/05/16 12:33:50;;;;;;;0.80;0.60;;;20.90;75.00;;;;;;4996770;28;20465;-70
2022/05/16 12:36:19;;;;;;;0.70;0.70;;;20.70;76.90;;;;;;4996710;28;20429;-70
2022/05/16 12:38:51;;;;;;;1.40;0.70;;;20.80;77.10;;;;;;4996667;28;20533;-69
2022/05/16 12:41:51;;;;;;;0.80;0.70;;;20.70;74.40;;;;;;4996657;28;20524;-69
2022/05/16 12:44:44;;;;;;;0.70;0.60;;;20.60;76.50;;;;;;4996237;28;20897;-69
2022/05/16 12:47:46;;;;;;;0.70;0.70;;;20.60;77.00;;;;;;4994415;28;20546;-69
2022/05/16 12:50:30;;;;;;;0.80;0.70;;;20.80;76.80;;;;;;4996448;28;20441;-70
2022/05/16 12:53:30;;;;;;;0.80;0.60;;;21.20;75.40;;;;;;4996214;28;20429;-70
2022/05/16 12:56:07;;;;;;;0.70;0.70;;;21.60;75.30;;;;;;4995946;28;20842;-69
2022/05/16 12:58:42;;;;;;;0.70;0.60;;;21.80;75.80;;;;;;4996216;28;20449;-69
2022/05/16 13:01:21;;;;;;;0.70;0.60;;;22.10;76.00;;;;;;4996169;28;20469;-69
2022/05/16 13:03:56;;;;;;;0.80;0.70;;;22.40;73.30;;;;;;4996052;28;20429;-70
2022/05/16 13:06:44;;;;;;;0.90;0.70;;;22.60;72.70;;;;;;4995959;28;20429;-68
2022/05/16 13:09:32;;;;;;;0.70;0.60;;;22.90;72.10;;;;;;4995952;28;20441;-69
2022/05/16 13:12:08;;;;;;;0.80;0.70;;;23.00;72.90;;;;;;4996137;28;20843;-70
2022/05/16 13:14:40;;;;;;;0.70;0.60;;;23.20;71.50;;;;;;4995716;28;20464;-70
2022/05/16 13:17:09;;;;;;;0.63;0.63;;;22.90;71.50;;;;;;4995635;28;20480;-69
2022/05/16 13:19:41;;;;;;;0.70;0.70;;;22.50;72.40;;;;;;4995794;28;20445;-69
2022/05/16 13:22:13;;;;;;;0.90;0.67;;;22.40;73.80;;;;;;4996294;28;20800;-70
2022/05/16 13:24:39;;;;;;;0.80;0.70;;;22.10;74.00;;;;;;4995705;28;20488;-70
2022/05/16 13:29:54;;;;;;;0.70;0.70;;;22.60;74.70;;;;;;4995791;28;20779;-70
2022/05/16 13:32:27;;;;;;;0.70;0.70;;;22.60;74.80;;;;;;4995609;28;20445;-70
2022/05/16 13:34:56;;;;;;;0.80;0.60;;;22.90;74.00;;;;;;4995471;28;20560;-70
2022/05/16 13:37:27;;;;;;;0.80;0.60;;;23.30;74.00;;;;;;4995428;28;20465;-70
2022/05/16 13:39:57;;;;;;;0.90;0.77;;;23.50;73.80;;;;;;4995512;28;20437;-70
2022/05/16 13:42:24;;;;;;;0.80;0.80;;;23.60;71.00;;;;;;4995417;28;20454;-69
2022/05/16 13:44:56;;;;;;;0.70;0.70;;;23.80;71.20;;;;;;4995390;28;20449;-70
2022/05/16 13:47:26;;;;;;;0.73;0.73;;;23.70;71.10;;;;;;4995314;28;20465;-69
2022/05/16 13:49:53;;;;;;;0.90;0.90;;;23.50;72.30;;;;;;4995442;28;20460;-69
2022/05/16 13:52:25;;;;;;;0.80;0.80;;;23.40;72.80;;;;;;4995045;28;20539;-70
2022/05/16 13:54:54;;;;;;;0.80;0.73;;;23.40;72.90;;;;;;4994985;28;20555;-70
2022/05/16 13:57:23;;;;;;;0.80;0.80;;;23.60;73.70;;;;;;4994894;28;20469;-68
2022/05/16 14:00:08;;;;;;;0.70;0.70;;;23.80;69.60;;;;;;4994904;28;20532;-70
2022/05/16 14:02:35;;;;;;;3.90;0.80;;;23.90;71.10;;;;;;4995062;28;20437;-70
2022/05/16 14:05:10;;;;;;;0.70;0.67;;;24.20;71.90;;;;;;4994915;28;20449;-70
2022/05/16 14:07:39;;;;;;;1.27;0.80;;;24.30;69.80;;;;;;4994915;28;20468;-69
2022/05/16 14:10:09;;;;;;;0.80;0.80;;;24.20;69.90;;;;;;4995061;28;20508;-71
2022/05/16 14:12:39;;;;;;;0.90;0.70;;;24.20;70.40;;;;;;4994831;28;20441;-71
2022/05/16 14:15:10;;;;;;;0.70;0.60;;;24.30;68.70;;;;;;4994585;28;20543;-71
2022/05/16 14:17:40;;;;;;;0.70;0.60;;;24.60;70.30;;;;;;4994202;28;20991;-69
2022/05/16 14:20:12;;;;;;;0.93;0.83;;;24.80;68.40;;;;;;4994578;28;20460;-70
2022/05/16 14:22:44;;;;;;;0.60;0.60;;;25.00;68.50;;;;;;4994302;28;20497;-70
2022/05/16 14:25:13;;;;;;;0.80;0.70;;;25.00;64.60;;;;;;4994556;28;20432;-71
2022/05/16 14:27:45;;;;;;;0.70;0.70;;;24.90;64.10;;;;;;4993888;28;20473;-70
2022/05/16 14:30:21;;;;;;;0.60;0.60;;;24.80;65.80;;;;;;4994533;28;20433;-70
2022/05/16 14:32:49;;;;;;;0.80;0.67;;;25.10;65.20;;;;;;4994499;28;20429;-70
2022/05/16 14:35:21;;;;;;;0.80;0.60;;;25.40;65.30;;;;;;4994142;28;20485;-70
2022/05/16 14:37:52;;;;;;;0.70;0.70;;;25.50;64.10;;;;;;4994240;28;20885;-71
2022/05/16 14:40:21;;;;;;;0.70;0.60;;;25.70;62.20;;;;;;4994729;28;20433;-71
2022/05/16 14:43:02;;;;;;;0.70;0.70;;;25.90;62.00;;;;;;4994255;28;20445;-71
2022/05/16 14:48:11;;;;;;;0.70;0.60;;;26.40;62.10;;;;;;4993375;28;20492;-69
2022/05/16 14:50:38;;;;;;;0.63;0.57;;;26.00;62.00;;;;;;4993933;28;20449;-70
2022/05/16 14:53:11;;;;;;;0.70;0.67;;;26.10;62.20;;;;;;4993838;28;20519;-70
2022/05/16 14:55:41;;;;;;;1.00;0.80;;;26.30;62.10;;;;;;4993813;28;20469;-70
2022/05/16 14:58:09;;;;;;;0.70;0.70;;;25.90;61.20;;;;;;4993485;28;20523;-70
2022/05/16 15:06:07;;;;;;;0.83;0.70;;;26.10;61.40;;;;;;4993438;28;20408;-70
2022/05/16 15:08:39;;;;;;;0.70;0.70;;;26.10;61.30;;;;;;4993881;28;20512;-69
2022/05/16 15:11:06;;;;;;;0.77;0.60;;;26.20;61.60;;;;;;4993860;28;20516;-70
2022/05/16 15:13:33;;;;;;;0.70;0.63;;;26.10;60.80;;;;;;4993888;28;20453;-71
2022/05/16 15:16:00;;;;;;;1.10;0.60;;;26.30;62.50;;;;;;4993752;28;20496;-71
2022/05/16 15:18:27;;;;;;;0.60;0.60;;;26.60;60.80;;;;;;4994614;28;20473;-70
2022/05/16 15:20:55;;;;;;;0.67;0.57;;;26.80;59.10;;;;;;4993378;28;20445;-71
2022/05/16 15:23:22;;;;;;;0.67;0.60;;;26.80;59.20;;;;;;4993643;28;20453;-71
2022/05/16 15:25:52;;;;;;;0.70;0.60;;;26.60;60.00;;;;;;4993748;28;20508;-70
2022/05/16 15:28:19;;;;;;;0.80;0.70;;;26.50;61.10;;;;;;4993672;28;20469;-69
2022/05/16 15:30:46;;;;;;;0.70;0.67;;;26.50;61.50;;;;;;4993443;28;21077;-71
2022/05/16 15:33:13;;;;;;;0.70;0.70;;;26.40;61.80;;;;;;4993774;28;20453;-71
2022/05/16 15:35:43;;;;;;;0.90;0.70;;;26.30;62.30;;;;;;4993572;28;20563;-71
2022/05/16 15:38:11;;;;;;;0.90;0.60;;;26.00;62.40;;;;;;4993602;28;20519;-70
2022/05/16 15:40:40;;;;;;;0.73;0.67;;;25.70;63.30;;;;;;4995574;28;20452;-69
2022/05/16 15:43:11;;;;;;;0.70;0.70;;;25.60;63.00;;;;;;4997510;28;20472;-70
2022/05/16 15:45:39;;;;;;;0.80;0.70;;;25.50;63.80;;;;;;4997509;28;20476;-70
2022/05/16 15:48:09;;;;;;;0.70;0.60;;;25.50;63.80;;;;;;4997423;28;20468;-70
2022/05/16 15:50:36;;;;;;;0.70;0.60;;;25.60;63.50;;;;;;4997043;28;20445;-71
2022/05/16 15:53:03;;;;;;;0.70;0.60;;;25.80;63.30;;;;;;4997381;28;20452;-71
2022/05/16 15:55:31;;;;;;;0.70;0.60;;;25.80;62.40;;;;;;4996897;28;21066;-71
2022/05/16 15:57:57;;;;;;;0.70;0.70;;;25.70;61.70;;;;;;4997266;28;20543;-71
2022/05/16 16:00:27;;;;;;;0.70;0.60;;;25.60;61.60;;;;;;4997248;28;20479;-71
2022/05/16 16:02:56;;;;;;;0.90;0.80;;;25.50;61.50;;;;;;4997304;28;20547;-71
2022/05/16 16:10:55;;;;;;;0.90;0.60;;;24.60;61.90;;;;;;4997430;28;20896;-71
2022/05/16 16:13:24;;;;;;;0.80;0.70;;;24.60;62.40;;;;;;4996986;28;20857;-70
2022/05/16 16:15:53;;;;;;;0.70;0.70;;;24.60;61.90;;;;;;4996620;28;20881;-70
2022/05/16 16:18:21;;;;;;;0.70;0.60;;;24.50;62.30;;;;;;4996531;28;20480;-70
2022/05/16 16:20:48;;;;;;;0.70;0.60;;;24.60;61.70;;;;;;4996784;28;20499;-70
2022/05/16 16:23:16;;;;;;;0.70;0.60;;;24.60;61.40;;;;;;4996966;28;20448;-71
2022/05/16 16:25:43;;;;;;;0.70;0.60;;;24.70;61.50;;;;;;4996774;28;20445;-71
2022/05/16 16:28:12;;;;;;;0.70;0.60;;;24.90;61.60;;;;;;4996677;28;20480;-70
2022/05/16 16:30:42;;;;;;;0.83;0.83;;;24.70;60.50;;;;;;4996596;28;20453;-70
2022/05/16 16:33:12;;;;;;;0.80;0.60;;;24.50;61.30;;;;;;4996635;28;20464;-70
2022/05/16 16:35:39;;;;;;;0.70;0.60;;;24.40;60.90;;;;;;4996413;28;20539;-70
2022/05/16 16:38:07;;;;;;;1.10;0.60;;;24.40;60.40;;;;;;4995932;28;20994;-70
2022/05/16 16:40:34;;;;;;;0.90;0.70;;;24.50;60.70;;;;;;4996334;28;20519;-69
2022/05/16 16:43:02;;;;;;;0.70;0.60;;;24.50;60.60;;;;;;4995909;28;20945;-71
2022/05/16 16:45:29;;;;;;;0.70;0.60;;;24.40;60.20;;;;;;4996303;28;20536;-70
2022/05/16 16:47:58;;;;;;;0.67;0.50;;;24.30;61.00;;;;;;4995974;28;21058;-70
2022/05/16 16:50:27;;;;;;;0.70;0.60;;;24.30;62.10;;;;;;4996059;28;20491;-70
2022/05/16 16:58:22;;;;;;;0.70;0.60;;;24.20;60.60;;;;;;4996389;28;20452;-70
2022/05/16 17:00:48;;;;;;;0.80;0.60;;;24.00;60.80;;;;;;5005793;28;20441;-69